Time;durP1;ratioP1;P1;durP2;ratioP2;P2;SDS_P1;SDS_P2;PMS_P1;PMS_P2;Temp;Humidity;BMP_temperature;BMP_pressure;BME280_temperature;BME280_humidity;BME280_pressure;Samples;Min_cycle;Max_cycle;Signal;HPM_P1;HPM_P2
2021/10/09 00:00:43;;;;;;;9.55;5.60;;;17.20;65.40;;;;;;5034313;28;20477;-60
2021/10/09 00:03:08;;;;;;;8.55;5.57;;;17.20;65.10;;;;;;5025113;28;20037;-60
2021/10/09 00:05:34;;;;;;;11.40;5.45;;;17.30;65.30;;;;;;5034385;28;20045;-60
2021/10/09 00:08:00;;;;;;;11.35;5.82;;;17.30;64.90;;;;;;5013876;28;20132;-60
2021/10/09 00:10:30;;;;;;;10.18;5.32;;;17.30;64.90;;;;;;5032706;28;20034;-59
2021/10/09 00:12:56;;;;;;;10.00;5.95;;;17.20;65.20;;;;;;5033943;28;20501;-60
2021/10/09 00:15:22;;;;;;;8.90;5.40;;;17.30;64.50;;;;;;5014853;28;20136;-60
2021/10/09 00:17:48;;;;;;;18.98;5.85;;;17.30;64.20;;;;;;5033315;28;20044;-60
2021/10/09 00:20:15;;;;;;;9.00;5.38;;;17.30;63.30;;;;;;5034400;28;20367;-60
2021/10/09 00:22:41;;;;;;;8.70;5.28;;;17.30;63.30;;;;;;5014954;28;20560;-60
2021/10/09 00:25:08;;;;;;;8.68;5.65;;;17.20;63.50;;;;;;5034098;28;20053;-60
2021/10/09 00:27:34;;;;;;;11.57;5.80;;;17.30;63.80;;;;;;5031989;28;20044;-60
2021/10/09 00:30:00;;;;;;;9.57;5.45;;;17.30;63.70;;;;;;5016986;28;20041;-59
2021/10/09 00:32:26;;;;;;;10.18;5.88;;;17.30;63.40;;;;;;5033331;28;20112;-60
2021/10/09 00:34:52;;;;;;;8.57;5.63;;;17.40;63.40;;;;;;5033531;28;20068;-60
2021/10/09 00:37:17;;;;;;;8.88;5.72;;;17.20;63.20;;;;;;5033903;28;20466;-59
2021/10/09 00:39:43;;;;;;;7.70;5.40;;;17.20;63.60;;;;;;5034099;28;20042;-60
2021/10/09 00:42:09;;;;;;;7.68;5.32;;;17.20;63.60;;;;;;5033141;28;20474;-60
2021/10/09 00:44:36;;;;;;;9.25;5.03;;;17.30;63.10;;;;;;5033225;28;20482;-60
2021/10/09 00:47:03;;;;;;;7.32;4.90;;;17.30;63.00;;;;;;5032302;28;20063;-60
2021/10/09 00:49:30;;;;;;;10.18;5.22;;;17.30;63.10;;;;;;5033415;28;20103;-60
2021/10/09 00:51:57;;;;;;;8.27;4.82;;;17.30;62.80;;;;;;5032533;28;20080;-60
2021/10/09 00:54:25;;;;;;;6.90;4.80;;;17.30;63.30;;;;;;5018383;28;20069;-60
2021/10/09 00:56:53;;;;;;;8.70;4.70;;;17.30;63.10;;;;;;5033349;28;20033;-60
2021/10/09 00:59:24;;;;;;;11.68;5.10;;;17.20;62.90;;;;;;5034019;28;20036;-60
2021/10/09 01:01:51;;;;;;;11.85;5.38;;;17.20;63.00;;;;;;5031958;28;20394;-59
2021/10/09 01:04:18;;;;;;;9.30;4.50;;;17.30;62.70;;;;;;5015771;28;20084;-60
2021/10/09 01:06:44;;;;;;;10.05;4.43;;;17.10;62.30;;;;;;5011241;28;20030;-60
2021/10/09 01:09:09;;;;;;;10.80;4.97;;;17.20;62.30;;;;;;5025799;28;20056;-60
2021/10/09 01:11:35;;;;;;;9.07;4.57;;;17.10;62.00;;;;;;5032225;28;20038;-60
2021/10/09 01:14:01;;;;;;;7.00;4.50;;;17.10;61.40;;;;;;5032852;28;20067;-60
2021/10/09 01:16:29;;;;;;;13.48;6.07;;;17.10;61.20;;;;;;5030350;28;20081;-60
2021/10/09 01:18:57;;;;;;;9.98;4.53;;;17.10;61.50;;;;;;5033576;28;20037;-60
2021/10/09 01:21:23;;;;;;;9.48;4.20;;;17.10;61.20;;;;;;5032627;28;20033;-59
2021/10/09 01:23:51;;;;;;;6.20;4.43;;;17.10;61.20;;;;;;5031110;28;20048;-59
2021/10/09 01:26:17;;;;;;;10.18;5.50;;;17.20;60.80;;;;;;5014911;28;20043;-60
2021/10/09 01:28:46;;;;;;;11.82;6.07;;;17.20;62.00;;;;;;5033362;28;20568;-60
2021/10/09 01:31:12;;;;;;;11.32;6.15;;;17.10;62.00;;;;;;5032172;28;20034;-60
2021/10/09 01:33:37;;;;;;;7.95;6.05;;;17.10;63.00;;;;;;5031758;28;20427;-59
2021/10/09 01:36:03;;;;;;;9.30;5.25;;;17.00;63.70;;;;;;5032703;28;20033;-60
2021/10/09 01:38:30;;;;;;;9.75;5.80;;;17.00;64.80;;;;;;5032035;28;20033;-59
2021/10/09 01:40:56;;;;;;;10.90;5.53;;;17.00;67.80;;;;;;5033367;28;20596;-60
2021/10/09 01:43:24;;;;;;;11.13;5.18;;;17.00;74.10;;;;;;5013791;28;20057;-59
2021/10/09 01:45:49;;;;;;;11.32;5.35;;;17.10;76.00;;;;;;5032932;28;20499;-60
2021/10/09 01:48:15;;;;;;;9.65;5.18;;;17.00;69.80;;;;;;5032037;28;20095;-60
2021/10/09 01:50:42;;;;;;;10.30;6.07;;;17.00;68.00;;;;;;5015381;28;20037;-59
2021/10/09 01:53:08;;;;;;;7.15;5.07;;;17.00;66.60;;;;;;5031896;28;20037;-60
2021/10/09 01:55:35;;;;;;;14.30;5.40;;;16.90;63.70;;;;;;5031208;28;20108;-59
2021/10/09 01:58:02;;;;;;;10.07;5.90;;;17.00;62.90;;;;;;5032484;28;20402;-59
2021/10/09 02:00:27;;;;;;;7.93;5.57;;;16.90;62.30;;;;;;5014676;28;20368;-59
2021/10/09 02:02:56;;;;;;;8.70;5.28;;;16.90;61.90;;;;;;5032133;28;20044;-60
2021/10/09 02:05:21;;;;;;;8.68;4.80;;;17.00;61.50;;;;;;5032030;28;20067;-60
2021/10/09 02:07:47;;;;;;;7.43;5.65;;;17.00;61.60;;;;;;5032113;28;20450;-60
2021/10/09 02:10:15;;;;;;;11.40;5.53;;;17.00;61.60;;;;;;5032295;28;20057;-60
2021/10/09 02:12:41;;;;;;;12.68;6.32;;;17.00;62.00;;;;;;5022888;28;20113;-60
2021/10/09 02:15:13;;;;;;;11.10;5.85;;;17.00;61.40;;;;;;5013761;28;20072;-59
2021/10/09 02:25:51;;;;;;;8.43;5.50;;;16.90;61.40;;;;;;5032911;28;20040;-59
2021/10/09 02:28:24;;;;;;;11.85;5.68;;;16.90;60.80;;;;;;5031631;28;20483;-59
2021/10/09 02:30:51;;;;;;;12.02;5.70;;;16.90;61.10;;;;;;5031935;28;20107;-61
2021/10/09 02:33:17;;;;;;;9.80;6.03;;;17.00;61.10;;;;;;5031492;28;20029;-59
2021/10/09 02:35:42;;;;;;;10.85;6.22;;;17.00;61.60;;;;;;5031139;28;20376;-59
2021/10/09 02:38:08;;;;;;;10.18;6.32;;;17.00;61.20;;;;;;5032151;28;20076;-59
2021/10/09 02:40:36;;;;;;;9.27;5.70;;;16.90;61.30;;;;;;5032342;28;20116;-59
2021/10/09 02:43:02;;;;;;;15.25;7.25;;;17.00;61.70;;;;;;5033388;28;20394;-59
2021/10/09 02:45:28;;;;;;;11.15;7.03;;;16.90;61.50;;;;;;5036022;28;20429;-60
2021/10/09 02:48:01;;;;;;;14.82;8.18;;;16.90;61.90;;;;;;5035550;28;20042;-60
2021/10/09 02:50:27;;;;;;;13.27;7.63;;;16.90;62.30;;;;;;5036078;28;20072;-59
2021/10/09 02:52:53;;;;;;;16.30;8.40;;;16.90;62.00;;;;;;5035080;28;20029;-59
2021/10/09 02:55:19;;;;;;;12.32;8.50;;;16.90;62.30;;;;;;5032992;28;20041;-60
2021/10/09 02:57:47;;;;;;;19.88;9.18;;;17.00;62.40;;;;;;5033688;28;20033;-59
2021/10/09 03:00:13;;;;;;;11.70;7.95;;;17.00;62.80;;;;;;5018314;28;20148;-60
2021/10/09 03:02:39;;;;;;;11.57;8.10;;;16.90;62.30;;;;;;5034593;28;20042;-59
2021/10/09 03:05:06;;;;;;;11.45;7.53;;;16.90;62.20;;;;;;5036047;28;20041;-59
2021/10/09 03:07:32;;;;;;;9.98;7.75;;;16.90;62.10;;;;;;5032673;28;20068;-60
2021/10/09 03:09:58;;;;;;;9.68;7.32;;;16.90;61.90;;;;;;5035650;28;20479;-59
2021/10/09 03:12:24;;;;;;;14.57;9.82;;;16.90;61.90;;;;;;5032866;28;20043;-60
2021/10/09 03:14:50;;;;;;;14.82;9.43;;;16.90;60.90;;;;;;5035981;28;20033;-60
2021/10/09 03:17:15;;;;;;;13.68;10.13;;;16.90;61.00;;;;;;5034173;28;20136;-60
2021/10/09 03:19:41;;;;;;;14.27;9.68;;;16.80;60.20;;;;;;5034834;28;20044;-60
2021/10/09 03:22:07;;;;;;;18.70;10.35;;;16.90;61.50;;;;;;5033970;28;20041;-59
2021/10/09 03:24:33;;;;;;;19.98;10.00;;;16.90;60.80;;;;;;5033991;28;20060;-60
2021/10/09 03:26:58;;;;;;;13.15;9.02;;;16.90;61.40;;;;;;5033970;28;20030;-60
2021/10/09 03:29:24;;;;;;;15.93;9.15;;;16.90;61.30;;;;;;5034365;28;20116;-60
2021/10/09 03:31:50;;;;;;;13.77;8.52;;;16.90;61.50;;;;;;5034429;28;20550;-61
2021/10/09 03:34:15;;;;;;;13.43;8.05;;;16.80;61.50;;;;;;5033564;28;20119;-61
2021/10/09 03:36:41;;;;;;;12.73;8.07;;;16.80;60.70;;;;;;5034511;28;20038;-61
2021/10/09 03:39:10;;;;;;;13.38;7.43;;;16.90;61.30;;;;;;5017069;28;20513;-61
2021/10/09 03:41:39;;;;;;;10.55;6.38;;;16.90;61.30;;;;;;5033068;28;20095;-60
2021/10/09 03:44:05;;;;;;;13.07;7.40;;;16.90;60.70;;;;;;5032954;28;20072;-60
2021/10/09 03:46:38;;;;;;;12.27;7.03;;;16.90;61.10;;;;;;5034092;28;20073;-60
2021/10/09 03:54:13;;;;;;;13.18;6.03;;;16.80;61.60;;;;;;5032779;28;20035;-61
2021/10/09 03:56:39;;;;;;;10.32;6.47;;;16.80;60.70;;;;;;5034583;28;20034;-61
2021/10/09 03:59:05;;;;;;;14.23;6.07;;;16.80;60.60;;;;;;5024082;28;20404;-61
2021/10/09 04:01:31;;;;;;;10.80;5.57;;;16.80;61.70;;;;;;5025463;28;20128;-60
2021/10/09 04:03:57;;;;;;;10.02;5.65;;;16.80;62.90;;;;;;5016034;28;20365;-61
2021/10/09 04:06:23;;;;;;;11.25;5.85;;;16.80;60.00;;;;;;5034248;28;20092;-61
2021/10/09 04:08:48;;;;;;;8.68;5.65;;;16.70;59.00;;;;;;5033028;28;20054;-61
2021/10/09 04:11:14;;;;;;;15.02;6.03;;;16.80;59.00;;;;;;5035196;28;20052;-61
2021/10/09 04:13:40;;;;;;;9.70;5.10;;;16.80;59.20;;;;;;5031500;28;20037;-61
2021/10/09 04:16:05;;;;;;;13.35;6.05;;;16.70;58.60;;;;;;5034347;28;20045;-61
2021/10/09 04:18:31;;;;;;;8.23;5.15;;;16.80;59.50;;;;;;5033761;28;20127;-61
2021/10/09 04:20:57;;;;;;;9.18;5.72;;;16.80;59.90;;;;;;5034715;28;20109;-61
2021/10/09 04:23:23;;;;;;;12.40;6.03;;;16.80;58.80;;;;;;5033352;28;20131;-61
2021/10/09 04:25:48;;;;;;;10.70;5.47;;;16.80;57.80;;;;;;5034360;28;20041;-61
2021/10/09 04:28:14;;;;;;;5.85;5.15;;;16.80;57.90;;;;;;5033042;28;20045;-61
2021/10/09 04:30:39;;;;;;;9.52;4.75;;;16.80;57.90;;;;;;5034561;28;20041;-60
2021/10/09 04:33:05;;;;;;;12.43;5.75;;;16.80;58.00;;;;;;5032946;28;20105;-60
2021/10/09 04:35:31;;;;;;;10.00;5.90;;;16.60;57.90;;;;;;5034060;28;20049;-60
2021/10/09 04:37:57;;;;;;;12.27;5.13;;;16.70;58.90;;;;;;5032919;28;20040;-61
2021/10/09 04:40:22;;;;;;;10.00;5.53;;;16.70;59.30;;;;;;5033388;28;20061;-61
2021/10/09 04:42:48;;;;;;;9.07;6.03;;;16.60;58.80;;;;;;5033551;28;20037;-60
2021/10/09 04:45:14;;;;;;;9.02;5.68;;;16.70;58.90;;;;;;5033610;28;20040;-60
2021/10/09 04:47:39;;;;;;;9.77;5.43;;;16.70;59.40;;;;;;5032722;28;20041;-61
2021/10/09 04:50:05;;;;;;;11.20;5.85;;;16.80;58.90;;;;;;5034238;28;20037;-60
2021/10/09 04:52:31;;;;;;;10.80;5.80;;;16.80;59.60;;;;;;5033049;28;20045;-61
2021/10/09 04:54:57;;;;;;;10.55;5.43;;;16.80;60.10;;;;;;5033817;28;20064;-61
2021/10/09 04:57:22;;;;;;;9.93;5.85;;;16.70;59.60;;;;;;5032634;28;20491;-61
2021/10/09 04:59:50;;;;;;;11.23;5.93;;;16.70;59.60;;;;;;5033485;28;20390;-61
2021/10/09 05:02:16;;;;;;;10.27;5.57;;;16.70;60.20;;;;;;5033050;28;20037;-60
2021/10/09 05:04:41;;;;;;;11.05;5.80;;;16.80;60.90;;;;;;5032790;28;20360;-61
2021/10/09 05:07:07;;;;;;;12.40;5.80;;;16.80;61.00;;;;;;5031372;28;20475;-61
2021/10/09 05:09:33;;;;;;;11.55;6.32;;;16.80;61.20;;;;;;5032384;28;20455;-61
2021/10/09 05:11:59;;;;;;;11.18;6.00;;;16.80;62.20;;;;;;5031127;28;20041;-61
2021/10/09 05:14:25;;;;;;;9.45;4.95;;;16.70;63.00;;;;;;5032975;28;20095;-61
2021/10/09 05:16:50;;;;;;;13.10;5.57;;;16.70;60.60;;;;;;5033522;28;20049;-61
2021/10/09 05:19:16;;;;;;;11.68;5.63;;;16.80;61.80;;;;;;5032414;28;20042;-61
2021/10/09 05:21:42;;;;;;;8.20;4.55;;;16.80;61.50;;;;;;5033098;28;20116;-61
2021/10/09 05:24:07;;;;;;;7.88;5.18;;;16.70;61.00;;;;;;5032338;28;20483;-61
2021/10/09 05:26:36;;;;;;;7.22;5.40;;;16.60;60.00;;;;;;5033461;28;20033;-61
2021/10/09 05:29:02;;;;;;;8.82;5.45;;;16.60;59.70;;;;;;5032106;28;20517;-61
2021/10/09 05:31:32;;;;;;;9.75;5.20;;;16.70;60.80;;;;;;5033336;28;20034;-60
2021/10/09 05:33:58;;;;;;;10.00;5.57;;;16.70;60.40;;;;;;5032315;28;20040;-60
2021/10/09 05:36:24;;;;;;;12.88;5.38;;;16.70;60.30;;;;;;5030424;28;20067;-61
2021/10/09 05:38:51;;;;;;;9.45;5.22;;;16.60;60.20;;;;;;5031430;28;20083;-60
2021/10/09 05:41:18;;;;;;;7.72;4.70;;;16.60;60.10;;;;;;5033011;28;20064;-61
2021/10/09 05:43:45;;;;;;;8.13;5.20;;;16.60;59.50;;;;;;5031636;28;20087;-61
2021/10/09 05:46:11;;;;;;;7.75;4.50;;;16.60;59.20;;;;;;5032723;28;20036;-61
2021/10/09 05:48:38;;;;;;;7.82;5.10;;;16.60;59.60;;;;;;5031616;28;20041;-61
2021/10/09 05:51:08;;;;;;;10.13;5.38;;;16.70;59.90;;;;;;5014935;28;20037;-61
2021/10/09 05:54:02;;;;;;;9.95;5.30;;;16.70;60.60;;;;;;5014406;28;20581;-60
2021/10/09 06:01:35;;;;;;;8.10;4.63;;;16.70;60.80;;;;;;5032892;28;20499;-60
2021/10/09 07:00:41;;;;;;;5.25;3.85;;;16.80;56.90;;;;;;5032295;28;20155;-60
2021/10/09 07:03:07;;;;;;;5.45;4.05;;;16.90;55.50;;;;;;5030412;28;20069;-60
2021/10/09 07:05:34;;;;;;;7.13;3.85;;;16.70;54.80;;;;;;5027657;28;20037;-60
2021/10/09 07:08:09;;;;;;;8.40;4.53;;;16.80;54.80;;;;;;5028962;28;20453;-60
2021/10/09 07:10:40;;;;;;;8.18;4.75;;;16.90;55.00;;;;;;5030132;28;20040;-60
2021/10/09 07:13:07;;;;;;;10.75;4.78;;;16.90;54.50;;;;;;5013109;28;20565;-60
2021/10/09 07:15:35;;;;;;;13.65;4.53;;;17.00;55.00;;;;;;5031478;28;20487;-60
2021/10/09 07:18:01;;;;;;;9.65;4.20;;;17.00;54.60;;;;;;5031147;28;20072;-60
2021/10/09 07:20:27;;;;;;;9.75;4.32;;;17.10;54.30;;;;;;5032182;28;20057;-60
2021/10/09 07:22:52;;;;;;;11.02;4.60;;;17.00;54.50;;;;;;5032092;28;20033;-59
2021/10/09 07:25:19;;;;;;;6.75;4.55;;;17.10;54.30;;;;;;5031610;28;20037;-60
2021/10/09 07:27:46;;;;;;;7.53;4.28;;;17.10;54.30;;;;;;5031532;28;20056;-59
2021/10/09 07:30:12;;;;;;;9.10;4.68;;;17.10;53.80;;;;;;5034642;28;20045;-60
2021/10/09 07:32:37;;;;;;;9.48;5.13;;;17.20;54.20;;;;;;5035664;28;20029;-59
2021/10/09 07:35:03;;;;;;;9.65;4.28;;;17.10;54.10;;;;;;5034597;28;20038;-60
2021/10/09 07:37:29;;;;;;;7.68;5.03;;;17.10;53.50;;;;;;5033345;28;20037;-61
2021/10/09 07:39:54;;;;;;;7.35;4.82;;;17.20;53.80;;;;;;5030860;28;20026;-60
2021/10/09 07:42:20;;;;;;;7.03;4.47;;;17.20;54.10;;;;;;5034038;28;20509;-59
2021/10/09 07:44:46;;;;;;;8.82;4.38;;;17.30;53.90;;;;;;5033667;28;20033;-59
2021/10/09 07:47:13;;;;;;;7.30;4.68;;;17.20;53.50;;;;;;5033081;28;20038;-59
2021/10/09 07:49:40;;;;;;;10.07;4.95;;;17.20;53.20;;;;;;5032973;28;20152;-59
2021/10/09 07:52:06;;;;;;;7.82;4.28;;;17.20;53.10;;;;;;5034536;28;20071;-60
2021/10/09 07:54:31;;;;;;;6.35;4.18;;;17.20;53.10;;;;;;5034144;28;20041;-59
2021/10/09 07:56:57;;;;;;;6.22;4.45;;;17.30;53.00;;;;;;5034245;28;20487;-60
2021/10/09 07:59:23;;;;;;;6.15;4.72;;;17.40;52.90;;;;;;5032158;28;20061;-59
2021/10/09 08:01:48;;;;;;;9.88;4.35;;;17.30;52.80;;;;;;5034503;28;20033;-59
2021/10/09 08:04:15;;;;;;;6.85;3.95;;;17.40;53.70;;;;;;5033493;28;20184;-59
2021/10/09 08:06:41;;;;;;;7.60;4.40;;;17.40;53.60;;;;;;5032810;28;20524;-59
2021/10/09 08:09:07;;;;;;;8.63;4.35;;;17.50;54.90;;;;;;5029289;28;20132;-59
2021/10/09 08:11:32;;;;;;;4.95;3.67;;;17.60;55.80;;;;;;5034359;28;20172;-59
2021/10/09 08:13:58;;;;;;;10.70;4.55;;;17.70;59.30;;;;;;5031899;28;20037;-59
2021/10/09 08:16:24;;;;;;;7.95;4.90;;;17.60;48.30;;;;;;5005591;28;20050;-60
2021/10/09 08:18:49;;;;;;;6.63;4.60;;;17.50;48.60;;;;;;5013717;28;20495;-60
2021/10/09 08:21:16;;;;;;;10.32;5.13;;;17.50;48.10;;;;;;5024742;28;20042;-59
2021/10/09 08:23:52;;;;;;;9.63;5.35;;;17.40;48.20;;;;;;5022075;28;20042;-59
2021/10/09 08:39:26;;;;;;;8.55;5.00;;;17.60;47.00;;;;;;5004107;28;20045;-60
2021/10/09 08:41:52;;;;;;;9.52;4.82;;;17.70;47.10;;;;;;5009709;28;20034;-59
2021/10/09 08:44:18;;;;;;;11.60;5.35;;;17.60;47.10;;;;;;5002489;28;20084;-60
2021/10/09 08:46:43;;;;;;;12.25;5.55;;;17.70;47.30;;;;;;5014498;28;20034;-60
2021/10/09 08:49:09;;;;;;;9.38;5.10;;;17.60;47.00;;;;;;5011403;28;20050;-60
2021/10/09 08:51:37;;;;;;;8.80;4.95;;;17.70;46.60;;;;;;5013181;28;20038;-60
2021/10/09 08:54:12;;;;;;;9.85;5.20;;;17.70;46.50;;;;;;5013796;28;20057;-60
2021/10/09 08:56:44;;;;;;;9.88;5.20;;;17.90;46.80;;;;;;5014360;28;20041;-60
2021/10/09 08:59:22;;;;;;;12.35;4.97;;;17.80;46.00;;;;;;5013609;28;20025;-60
2021/10/09 09:02:19;;;;;;;8.50;4.40;;;17.90;46.30;;;;;;5014594;28;20034;-60
2021/10/09 09:35:44;;;;;;;7.07;4.25;;;18.50;44.80;;;;;;5028612;28;20056;-59
2021/10/09 09:40:35;;;;;;;8.65;4.50;;;18.40;44.50;;;;;;5032704;28;20065;-59
2021/10/09 09:43:01;;;;;;;10.30;4.70;;;18.50;44.00;;;;;;5033079;28;20136;-59
2021/10/09 09:45:27;;;;;;;7.22;4.53;;;18.70;44.50;;;;;;5031866;28;20057;-59
2021/10/09 09:47:55;;;;;;;8.52;4.57;;;18.60;43.90;;;;;;5032613;28;20057;-59
2021/10/09 09:50:22;;;;;;;8.23;3.95;;;18.60;43.70;;;;;;5013248;28;20172;-59
2021/10/09 09:52:48;;;;;;;6.22;4.80;;;19.00;43.40;;;;;;5010461;28;20071;-59
2021/10/09 09:55:15;;;;;;;9.55;4.82;;;19.00;43.20;;;;;;5031546;28;20041;-59
2021/10/09 09:57:41;;;;;;;7.70;4.40;;;19.00;40.90;;;;;;5033255;28;20493;-59
2021/10/09 10:00:12;;;;;;;7.13;5.05;;;19.00;41.20;;;;;;5031790;28;20065;-59
2021/10/09 10:02:51;;;;;;;11.25;4.97;;;19.20;42.40;;;;;;5031787;28;20042;-59
2021/10/09 10:05:24;;;;;;;13.25;5.20;;;19.30;42.20;;;;;;5031362;28;20112;-60
2021/10/09 10:07:51;;;;;;;10.43;4.40;;;19.30;43.10;;;;;;5024495;28;20116;-59
2021/10/09 10:10:17;;;;;;;7.28;4.72;;;19.40;43.70;;;;;;5030080;28;20474;-59
2021/10/09 10:12:47;;;;;;;14.60;4.68;;;19.50;42.20;;;;;;5031667;28;20034;-59
2021/10/09 10:15:13;;;;;;;9.98;5.35;;;19.50;42.50;;;;;;5030539;28;20380;-59
2021/10/09 10:17:48;;;;;;;7.15;4.55;;;19.40;41.70;;;;;;5012108;28;20402;-59
2021/10/09 10:20:16;;;;;;;10.13;5.30;;;19.50;41.50;;;;;;5030900;28;20126;-60
2021/10/09 10:22:41;;;;;;;9.80;4.70;;;19.50;42.10;;;;;;5013797;28;20037;-60
2021/10/09 10:25:35;;;;;;;8.32;4.70;;;19.30;42.30;;;;;;5031018;28;20391;-60
2021/10/09 10:28:08;;;;;;;8.02;5.80;;;19.30;42.00;;;;;;5025137;28;20507;-60
2021/10/09 10:30:36;;;;;;;8.27;4.90;;;19.10;42.40;;;;;;5031371;28;20049;-60
2021/10/09 10:33:05;;;;;;;8.93;5.68;;;19.10;42.70;;;;;;5030639;28;20170;-60
2021/10/09 10:35:30;;;;;;;11.55;5.97;;;19.00;42.40;;;;;;5030151;28;20411;-60
2021/10/09 10:38:02;;;;;;;6.72;4.97;;;19.00;42.80;;;;;;5013106;28;20042;-60
2021/10/09 10:40:50;;;;;;;8.50;5.97;;;19.20;42.50;;;;;;5029175;28;20037;-60
2021/10/09 10:46:04;;;;;;;9.68;5.07;;;19.30;40.40;;;;;;5027263;28;20026;-60
2021/10/09 10:54:12;;;;;;;8.40;5.30;;;19.30;38.80;;;;;;5030621;28;20026;-61
2021/10/09 10:56:59;;;;;;;7.00;5.28;;;19.40;41.00;;;;;;5030081;28;20036;-60
2021/10/09 10:59:32;;;;;;;8.00;5.35;;;19.50;39.60;;;;;;5030957;28;20036;-60
2021/10/09 11:02:17;;;;;;;6.40;5.13;;;19.50;39.00;;;;;;5028782;28;20045;-60
2021/10/09 11:04:52;;;;;;;7.20;5.05;;;19.40;37.90;;;;;;5032958;28;20176;-60
2021/10/09 11:07:20;;;;;;;7.78;5.38;;;19.40;39.10;;;;;;5034433;28;20112;-60
2021/10/09 11:09:48;;;;;;;6.82;4.72;;;19.60;39.60;;;;;;5015862;28;20037;-60
2021/10/09 11:12:28;;;;;;;9.32;5.57;;;19.70;39.60;;;;;;5034809;28;20425;-60
2021/10/09 11:15:15;;;;;;;6.88;4.97;;;19.80;38.00;;;;;;5032158;28;20044;-60
2021/10/09 11:17:43;;;;;;;8.68;5.03;;;19.90;37.90;;;;;;5032228;28;20046;-60
2021/10/09 11:20:11;;;;;;;7.82;5.55;;;19.90;38.50;;;;;;5032956;28;20034;-60
2021/10/09 11:22:44;;;;;;;8.27;4.95;;;19.90;38.90;;;;;;5034148;28;20440;-60
2021/10/09 11:25:22;;;;;;;9.07;5.20;;;20.00;39.60;;;;;;5032989;28;20049;-60
2021/10/09 11:27:48;;;;;;;7.28;5.28;;;20.10;39.30;;;;;;5035443;28;20037;-60
2021/10/09 11:30:14;;;;;;;9.30;4.63;;;20.00;40.20;;;;;;5033813;28;20037;-59
2021/10/09 11:32:41;;;;;;;7.15;5.30;;;20.10;40.60;;;;;;5027490;28;20467;-60
2021/10/09 11:35:08;;;;;;;9.65;5.22;;;20.00;41.40;;;;;;5032998;28;20044;-60
2021/10/09 11:37:43;;;;;;;9.55;5.90;;;20.00;40.40;;;;;;5037328;28;20139;-60
2021/10/09 11:40:09;;;;;;;6.78;5.43;;;20.10;41.60;;;;;;5018201;28;20033;-60
2021/10/09 11:42:54;;;;;;;5.72;5.05;;;20.10;44.30;;;;;;5041467;28;20441;-60
2021/10/09 11:45:29;;;;;;;10.27;5.80;;;19.90;47.30;;;;;;5034229;28;20038;-60
2021/10/09 11:55:38;;;;;;;8.85;5.93;;;20.10;44.80;;;;;;5034738;28;20029;-60
2021/10/09 11:58:04;;;;;;;7.80;5.32;;;20.30;43.90;;;;;;5032351;28;20083;-60
2021/10/09 12:00:31;;;;;;;12.15;6.28;;;20.20;42.70;;;;;;5033120;28;20064;-60
2021/10/09 12:03:25;;;;;;;8.98;6.05;;;20.30;43.10;;;;;;5029830;28;20435;-60
2021/10/09 12:06:11;;;;;;;8.55;5.75;;;20.20;39.60;;;;;;5032812;28;20030;-60
2021/10/09 12:08:55;;;;;;;12.70;5.55;;;20.10;39.70;;;;;;5031365;28;20088;-60
2021/10/09 12:11:23;;;;;;;14.55;5.88;;;20.40;39.20;;;;;;5033629;28;20053;-60
2021/10/09 12:14:00;;;;;;;7.40;4.97;;;20.60;38.40;;;;;;5036592;28;20232;-60
2021/10/09 12:16:25;;;;;;;12.25;5.95;;;20.70;41.90;;;;;;5011572;28;20050;-60
2021/10/09 12:18:56;;;;;;;9.20;5.43;;;20.80;42.50;;;;;;5034450;28;20053;-60
2021/10/09 12:21:24;;;;;;;7.95;5.10;;;21.00;44.60;;;;;;5033698;28;20059;-60
2021/10/09 12:23:51;;;;;;;9.07;5.32;;;21.30;42.00;;;;;;5030931;28;22088;-60
2021/10/09 12:26:18;;;;;;;7.38;5.13;;;21.40;48.30;;;;;;5031898;28;20022;-60
2021/10/09 12:29:13;;;;;;;8.45;5.30;;;21.60;38.20;;;;;;5028498;28;20132;-60
2021/10/09 12:31:44;;;;;;;9.18;5.45;;;21.60;38.00;;;;;;5026229;28;20136;-60
2021/10/09 12:34:31;;;;;;;6.40;5.15;;;21.60;38.20;;;;;;5031651;28;20029;-60
2021/10/09 12:37:24;;;;;;;8.20;5.30;;;21.30;37.00;;;;;;5019962;28;20403;-60
2021/10/09 12:40:05;;;;;;;8.98;6.13;;;21.50;38.30;;;;;;5033132;28;20033;-60
2021/10/09 12:42:31;;;;;;;8.65;5.28;;;21.20;37.80;;;;;;5033565;28;20128;-60
2021/10/09 12:44:57;;;;;;;7.32;5.03;;;21.40;39.90;;;;;;5033503;28;20463;-60
2021/10/09 12:47:22;;;;;;;6.53;5.40;;;21.40;40.30;;;;;;5033883;28;20041;-60
2021/10/09 12:49:48;;;;;;;11.85;5.45;;;21.10;40.80;;;;;;5028557;28;20046;-60
2021/10/09 12:52:13;;;;;;;9.00;4.90;;;21.10;44.30;;;;;;5030252;28;20061;-60
2021/10/09 12:54:39;;;;;;;7.80;4.70;;;21.30;41.50;;;;;;5033372;28;20076;-60
2021/10/09 12:57:08;;;;;;;7.97;4.68;;;21.70;33.90;;;;;;5032626;28;20029;-60
2021/10/09 12:59:35;;;;;;;7.93;4.95;;;21.90;31.80;;;;;;5032291;28;20376;-60
2021/10/09 13:02:02;;;;;;;9.32;5.25;;;21.80;30.20;;;;;;5032569;28;20116;-59
2021/10/09 13:04:28;;;;;;;11.10;5.40;;;21.80;31.70;;;;;;5019548;28;20120;-60
2021/10/09 13:06:53;;;;;;;8.32;5.70;;;21.70;31.90;;;;;;5031531;28;20041;-60
2021/10/09 13:09:19;;;;;;;8.05;5.30;;;22.00;31.50;;;;;;5030008;28;20089;-60
2021/10/09 13:11:48;;;;;;;9.18;5.80;;;22.00;31.20;;;;;;5022855;28;20499;-60
2021/10/09 13:14:14;;;;;;;8.70;5.45;;;22.10;31.40;;;;;;5022218;28;20120;-60
2021/10/09 13:16:40;;;;;;;11.15;6.20;;;22.10;30.70;;;;;;5032684;28;20077;-60
2021/10/09 13:19:06;;;;;;;9.18;5.72;;;22.20;30.50;;;;;;5032909;28;20498;-60
2021/10/09 13:21:32;;;;;;;9.73;6.07;;;22.10;30.80;;;;;;5033439;28;20033;-60
2021/10/09 13:23:58;;;;;;;7.13;5.95;;;22.40;31.20;;;;;;5028521;28;20044;-59
2021/10/09 13:26:23;;;;;;;7.22;5.90;;;22.30;34.50;;;;;;5032488;28;20037;-59
2021/10/09 13:28:49;;;;;;;7.57;6.07;;;22.00;35.80;;;;;;5014892;28;20483;-59
2021/10/09 13:31:14;;;;;;;7.80;5.90;;;22.00;37.10;;;;;;5032131;28;20038;-59
2021/10/09 13:33:40;;;;;;;8.65;6.10;;;22.10;37.80;;;;;;5032835;28;20117;-59
2021/10/09 13:36:07;;;;;;;8.57;5.45;;;21.80;38.10;;;;;;5032013;28;20501;-59
2021/10/09 13:38:34;;;;;;;7.78;5.93;;;21.70;38.30;;;;;;5033284;28;20025;-60
2021/10/09 13:40:59;;;;;;;6.68;5.53;;;21.50;39.00;;;;;;5031207;28;20040;-59
2021/10/09 13:43:25;;;;;;;7.85;5.63;;;21.30;39.40;;;;;;5032868;28;20033;-60
2021/10/09 13:45:51;;;;;;;8.65;5.70;;;21.30;40.20;;;;;;5032230;28;20088;-60
2021/10/09 13:48:17;;;;;;;7.40;5.90;;;21.00;40.10;;;;;;5032971;28;20049;-60
2021/10/09 13:50:46;;;;;;;8.82;6.18;;;20.90;41.80;;;;;;5031734;28;20037;-59
2021/10/09 13:53:12;;;;;;;8.48;5.47;;;21.00;41.00;;;;;;5032484;28;20539;-60
2021/10/09 13:55:40;;;;;;;8.18;6.03;;;21.00;38.20;;;;;;5031337;28;20038;-59
2021/10/09 13:58:06;;;;;;;7.68;5.85;;;20.90;37.00;;;;;;5032887;28;20029;-59
2021/10/09 14:00:31;;;;;;;7.35;5.95;;;21.00;37.90;;;;;;5031597;28;20041;-60
2021/10/09 14:02:58;;;;;;;7.97;5.53;;;21.20;37.50;;;;;;5032428;28;20079;-60
2021/10/09 14:05:24;;;;;;;8.40;6.18;;;21.10;36.50;;;;;;5014029;28;20036;-60
2021/10/09 14:07:50;;;;;;;11.35;5.85;;;21.00;37.60;;;;;;5032506;28;20065;-60
2021/10/09 14:10:17;;;;;;;6.57;5.80;;;21.10;37.50;;;;;;5031578;28;20057;-59
2021/10/09 14:12:43;;;;;;;8.07;5.72;;;20.90;37.00;;;;;;5022891;28;20035;-59
2021/10/09 14:15:09;;;;;;;7.57;5.30;;;20.90;37.60;;;;;;5031647;28;20041;-60
2021/10/09 14:17:34;;;;;;;8.38;6.10;;;20.90;37.60;;;;;;5032070;28;20041;-59
2021/10/09 14:20:01;;;;;;;10.38;5.40;;;20.90;37.60;;;;;;5031446;28;20029;-60
2021/10/09 14:22:28;;;;;;;7.57;6.47;;;20.70;38.00;;;;;;5032770;28;20029;-59
2021/10/09 14:24:53;;;;;;;9.27;6.22;;;20.40;37.80;;;;;;5013628;28;20061;-60
2021/10/09 14:27:19;;;;;;;10.60;6.00;;;20.60;38.30;;;;;;5031862;28;20068;-60
2021/10/09 14:29:45;;;;;;;9.88;5.72;;;20.50;38.40;;;;;;5028617;28;20041;-59
2021/10/09 14:32:10;;;;;;;7.35;5.78;;;20.60;38.80;;;;;;5032425;28;20026;-59
2021/10/09 14:34:36;;;;;;;7.32;5.30;;;20.60;39.00;;;;;;5031360;28;20406;-60
2021/10/09 14:37:01;;;;;;;7.70;6.57;;;20.50;38.70;;;;;;5031725;28;20057;-60
2021/10/09 14:39:28;;;;;;;7.75;5.45;;;20.50;38.70;;;;;;5035008;28;20029;-60
2021/10/09 14:41:54;;;;;;;7.65;5.22;;;20.30;39.60;;;;;;5019568;28;20045;-59
2021/10/09 14:44:19;;;;;;;7.93;5.85;;;20.30;40.20;;;;;;5035271;28;20487;-59
2021/10/09 14:49:29;;;;;;;;;;;20.50;40.30;;;;;;5036718;28;20091;-59
2021/10/09 15:02:42;;;;;;;6.38;5.45;;;20.00;42.90;;;;;;5033631;28;20445;-59
2021/10/09 15:18:36;;;;;;;8.20;6.35;;;19.90;38.90;;;;;;5020583;28;20130;-60
2021/10/09 15:21:02;;;;;;;12.73;6.50;;;20.00;38.40;;;;;;5034522;28;20077;-60
2021/10/09 15:23:29;;;;;;;8.10;5.97;;;19.70;38.40;;;;;;5034832;28;20038;-60
2021/10/09 15:25:54;;;;;;;10.32;5.70;;;19.50;39.10;;;;;;5035113;28;20037;-60
2021/10/09 15:28:20;;;;;;;6.78;5.68;;;19.40;39.00;;;;;;5034751;28;20048;-60
2021/10/09 15:30:46;;;;;;;9.80;5.22;;;19.30;39.20;;;;;;5034970;28;20124;-60